sensor_id;sensor_type;location;lat;lon;timestamp;P1;durP1;ratioP1;P2;durP2;ratioP2
74523;SDS011;63074;44.696;10.358;2023-06-22T00:00:09;7.72;;;4.55;;
74523;SDS011;63074;44.696;10.358;2023-06-22T00:02:37;8.70;;;4.38;;
74523;SDS011;63074;44.696;10.358;2023-06-22T00:05:03;8.52;;;4.68;;
74523;SDS011;63074;44.696;10.358;2023-06-22T00:07:30;7.68;;;4.68;;
74523;SDS011;63074;44.696;10.358;2023-06-22T00:09:59;8.10;;;4.57;;
74523;SDS011;63074;44.696;10.358;2023-06-22T00:12:25;8.00;;;5.20;;
74523;SDS011;63074;44.696;10.358;2023-06-22T00:14:52;8.85;;;5.03;;
74523;SDS011;63074;44.696;10.358;2023-06-22T00:17:21;8.35;;;4.80;;
74523;SDS011;63074;44.696;10.358;2023-06-22T00:19:47;8.73;;;5.05;;
74523;SDS011;63074;44.696;10.358;2023-06-22T00:22:18;8.43;;;4.80;;
74523;SDS011;63074;44.696;10.358;2023-06-22T00:24:44;9.02;;;5.53;;
74523;SDS011;63074;44.696;10.358;2023-06-22T00:27:10;9.45;;;5.35;;
74523;SDS011;63074;44.696;10.358;2023-06-22T00:29:36;7.97;;;4.75;;
74523;SDS011;63074;44.696;10.358;2023-06-22T00:32:02;9.05;;;4.65;;
74523;SDS011;63074;44.696;10.358;2023-06-22T00:34:29;8.23;;;4.68;;
74523;SDS011;63074;44.696;10.358;2023-06-22T00:36:55;8.43;;;4.88;;
74523;SDS011;63074;44.696;10.358;2023-06-22T00:39:21;9.77;;;4.50;;
74523;SDS011;63074;44.696;10.358;2023-06-22T00:41:47;7.47;;;4.53;;
74523;SDS011;63074;44.696;10.358;2023-06-22T00:44:14;9.13;;;5.00;;
74523;SDS011;63074;44.696;10.358;2023-06-22T00:46:40;8.70;;;5.50;;
74523;SDS011;63074;44.696;10.358;2023-06-22T00:49:06;8.40;;;4.85;;
74523;SDS011;63074;44.696;10.358;2023-06-22T00:51:32;9.45;;;5.65;;
74523;SDS011;63074;44.696;10.358;2023-06-22T00:54:00;9.45;;;5.93;;
74523;SDS011;63074;44.696;10.358;2023-06-22T00:56:26;8.23;;;5.40;;
74523;SDS011;63074;44.696;10.358;2023-06-22T00:58:54;9.13;;;5.53;;
74523;SDS011;63074;44.696;10.358;2023-06-22T01:01:22;8.95;;;4.68;;
74523;SDS011;63074;44.696;10.358;2023-06-22T01:03:49;9.40;;;5.55;;
74523;SDS011;63074;44.696;10.358;2023-06-22T01:06:17;10.35;;;5.03;;
74523;SDS011;63074;44.696;10.358;2023-06-22T01:13:54;8.02;;;5.75;;
74523;SDS011;63074;44.696;10.358;2023-06-22T01:16:44;7.90;;;4.55;;
74523;SDS011;63074;44.696;10.358;2023-06-22T01:21:44;9.13;;;5.15;;
74523;SDS011;63074;44.696;10.358;2023-06-22T01:29:44;7.22;;;4.70;;
74523;SDS011;63074;44.696;10.358;2023-06-22T01:32:16;8.38;;;4.90;;
74523;SDS011;63074;44.696;10.358;2023-06-22T01:34:44;7.65;;;4.82;;
74523;SDS011;63074;44.696;10.358;2023-06-22T01:37:17;10.95;;;5.32;;
74523;SDS011;63074;44.696;10.358;2023-06-22T01:39:44;8.77;;;4.65;;
74523;SDS011;63074;44.696;10.358;2023-06-22T01:42:11;10.05;;;5.53;;
74523;SDS011;63074;44.696;10.358;2023-06-22T01:44:37;7.78;;;4.82;;
74523;SDS011;63074;44.696;10.358;2023-06-22T01:47:06;9.45;;;5.65;;
74523;SDS011;63074;44.696;10.358;2023-06-22T01:49:47;8.68;;;5.18;;
74523;SDS011;63074;44.696;10.358;2023-06-22T01:52:32;9.50;;;5.35;;
74523;SDS011;63074;44.696;10.358;2023-06-22T01:55:00;11.48;;;5.75;;
74523;SDS011;63074;44.696;10.358;2023-06-22T01:57:27;7.03;;;5.40;;
74523;SDS011;63074;44.696;10.358;2023-06-22T02:00:00;7.28;;;5.78;;
74523;SDS011;63074;44.696;10.358;2023-06-22T02:02:32;6.70;;;4.95;;
74523;SDS011;63074;44.696;10.358;2023-06-22T02:05:09;9.23;;;5.47;;
74523;SDS011;63074;44.696;10.358;2023-06-22T02:07:44;10.93;;;5.72;;
74523;SDS011;63074;44.696;10.358;2023-06-22T02:10:42;7.65;;;4.90;;
74523;SDS011;63074;44.696;10.358;2023-06-22T02:13:28;8.35;;;5.05;;
74523;SDS011;63074;44.696;10.358;2023-06-22T02:15:57;9.13;;;5.15;;
74523;SDS011;63074;44.696;10.358;2023-06-22T02:18:30;7.97;;;5.03;;
74523;SDS011;63074;44.696;10.358;2023-06-22T02:20:56;6.80;;;5.10;;
74523;SDS011;63074;44.696;10.358;2023-06-22T02:23:24;8.52;;;5.38;;
74523;SDS011;63074;44.696;10.358;2023-06-22T02:25:50;7.75;;;5.32;;
74523;SDS011;63074;44.696;10.358;2023-06-22T02:28:17;8.73;;;5.57;;
74523;SDS011;63074;44.696;10.358;2023-06-22T02:30:43;8.25;;;6.05;;
74523;SDS011;63074;44.696;10.358;2023-06-22T02:33:10;12.07;;;6.28;;
74523;SDS011;63074;44.696;10.358;2023-06-22T02:35:36;9.75;;;7.22;;
74523;SDS011;63074;44.696;10.358;2023-06-22T02:38:03;10.70;;;7.13;;
74523;SDS011;63074;44.696;10.358;2023-06-22T02:40:30;12.60;;;7.22;;
74523;SDS011;63074;44.696;10.358;2023-06-22T02:42:57;9.10;;;7.15;;
74523;SDS011;63074;44.696;10.358;2023-06-22T02:45:26;11.13;;;7.55;;
74523;SDS011;63074;44.696;10.358;2023-06-22T02:47:53;12.25;;;7.55;;
74523;SDS011;63074;44.696;10.358;2023-06-22T02:52:46;11.43;;;8.32;;
74523;SDS011;63074;44.696;10.358;2023-06-22T02:55:12;10.15;;;7.75;;
74523;SDS011;63074;44.696;10.358;2023-06-22T02:57:38;10.75;;;8.27;;
74523;SDS011;63074;44.696;10.358;2023-06-22T03:00:08;11.75;;;8.10;;
74523;SDS011;63074;44.696;10.358;2023-06-22T03:02:42;9.52;;;7.25;;
74523;SDS011;63074;44.696;10.358;2023-06-22T03:05:12;13.27;;;8.45;;
74523;SDS011;63074;44.696;10.358;2023-06-22T03:07:39;11.23;;;8.13;;
74523;SDS011;63074;44.696;10.358;2023-06-22T03:10:07;11.52;;;7.53;;
74523;SDS011;63074;44.696;10.358;2023-06-22T03:12:35;12.18;;;8.07;;
74523;SDS011;63074;44.696;10.358;2023-06-22T03:15:05;9.98;;;7.60;;
74523;SDS011;63074;44.696;10.358;2023-06-22T03:17:33;8.32;;;6.70;;
74523;SDS011;63074;44.696;10.358;2023-06-22T03:20:00;10.15;;;7.05;;
74523;SDS011;63074;44.696;10.358;2023-06-22T03:22:33;10.65;;;7.15;;
74523;SDS011;63074;44.696;10.358;2023-06-22T03:25:00;11.55;;;7.53;;
74523;SDS011;63074;44.696;10.358;2023-06-22T03:27:27;7.40;;;6.45;;
74523;SDS011;63074;44.696;10.358;2023-06-22T03:29:53;11.32;;;7.22;;
74523;SDS011;63074;44.696;10.358;2023-06-22T03:34:45;10.98;;;7.40;;
74523;SDS011;63074;44.696;10.358;2023-06-22T03:37:12;9.77;;;7.07;;
74523;SDS011;63074;44.696;10.358;2023-06-22T03:39:39;9.18;;;6.43;;
74523;SDS011;63074;44.696;10.358;2023-06-22T03:42:06;9.55;;;6.22;;
74523;SDS011;63074;44.696;10.358;2023-06-22T03:44:33;12.20;;;9.02;;
74523;SDS011;63074;44.696;10.358;2023-06-22T03:47:01;11.77;;;7.68;;
74523;SDS011;63074;44.696;10.358;2023-06-22T03:49:29;12.02;;;9.02;;
74523;SDS011;63074;44.696;10.358;2023-06-22T03:51:55;11.18;;;7.90;;
74523;SDS011;63074;44.696;10.358;2023-06-22T03:54:21;11.43;;;8.20;;
74523;SDS011;63074;44.696;10.358;2023-06-22T03:56:47;13.43;;;8.05;;
74523;SDS011;63074;44.696;10.358;2023-06-22T03:59:13;10.32;;;7.88;;
74523;SDS011;63074;44.696;10.358;2023-06-22T04:01:40;11.60;;;7.85;;
74523;SDS011;63074;44.696;10.358;2023-06-22T04:04:06;12.75;;;7.55;;
74523;SDS011;63074;44.696;10.358;2023-06-22T04:06:32;11.50;;;8.30;;
74523;SDS011;63074;44.696;10.358;2023-06-22T04:08:59;10.63;;;7.07;;
74523;SDS011;63074;44.696;10.358;2023-06-22T04:11:26;10.93;;;6.82;;
74523;SDS011;63074;44.696;10.358;2023-06-22T04:13:52;10.98;;;6.82;;
74523;SDS011;63074;44.696;10.358;2023-06-22T04:16:18;9.88;;;6.80;;
74523;SDS011;63074;44.696;10.358;2023-06-22T04:18:48;9.98;;;6.70;;
74523;SDS011;63074;44.696;10.358;2023-06-22T04:21:14;10.57;;;5.97;;
74523;SDS011;63074;44.696;10.358;2023-06-22T04:23:40;10.02;;;6.05;;
74523;SDS011;63074;44.696;10.358;2023-06-22T04:26:08;9.63;;;6.20;;
74523;SDS011;63074;44.696;10.358;2023-06-22T04:28:34;10.82;;;5.95;;
74523;SDS011;63074;44.696;10.358;2023-06-22T04:31:03;8.30;;;5.38;;
74523;SDS011;63074;44.696;10.358;2023-06-22T04:33:30;8.52;;;5.50;;
74523;SDS011;63074;44.696;10.358;2023-06-22T04:35:56;7.63;;;5.93;;
74523;SDS011;63074;44.696;10.358;2023-06-22T04:38:24;10.77;;;6.60;;
74523;SDS011;63074;44.696;10.358;2023-06-22T04:40:51;9.98;;;5.65;;
74523;SDS011;63074;44.696;10.358;2023-06-22T04:43:18;9.88;;;5.82;;
74523;SDS011;63074;44.696;10.358;2023-06-22T04:45:44;8.68;;;5.80;;
74523;SDS011;63074;44.696;10.358;2023-06-22T04:48:10;9.00;;;5.47;;
74523;SDS011;63074;44.696;10.358;2023-06-22T04:50:41;10.82;;;6.20;;
74523;SDS011;63074;44.696;10.358;2023-06-22T04:53:07;8.15;;;5.28;;
74523;SDS011;63074;44.696;10.358;2023-06-22T04:55:37;8.70;;;5.60;;
74523;SDS011;63074;44.696;10.358;2023-06-22T05:00:33;10.07;;;5.63;;
74523;SDS011;63074;44.696;10.358;2023-06-22T05:03:01;8.43;;;5.40;;
74523;SDS011;63074;44.696;10.358;2023-06-22T05:05:28;9.68;;;6.07;;
74523;SDS011;63074;44.696;10.358;2023-06-22T05:07:56;10.75;;;5.07;;
74523;SDS011;63074;44.696;10.358;2023-06-22T05:10:25;11.07;;;5.70;;
74523;SDS011;63074;44.696;10.358;2023-06-22T05:12:51;8.25;;;5.47;;
74523;SDS011;63074;44.696;10.358;2023-06-22T05:15:17;8.50;;;4.85;;
74523;SDS011;63074;44.696;10.358;2023-06-22T05:17:44;7.80;;;5.30;;
74523;SDS011;63074;44.696;10.358;2023-06-22T05:20:11;7.63;;;4.72;;
74523;SDS011;63074;44.696;10.358;2023-06-22T05:22:39;8.38;;;5.72;;
74523;SDS011;63074;44.696;10.358;2023-06-22T05:25:07;10.02;;;4.72;;
74523;SDS011;63074;44.696;10.358;2023-06-22T05:27:35;9.15;;;5.78;;
74523;SDS011;63074;44.696;10.358;2023-06-22T05:30:05;6.88;;;5.28;;
74523;SDS011;63074;44.696;10.358;2023-06-22T05:32:32;9.55;;;5.43;;
74523;SDS011;63074;44.696;10.358;2023-06-22T05:34:58;8.23;;;5.55;;
74523;SDS011;63074;44.696;10.358;2023-06-22T05:37:25;8.63;;;5.47;;
74523;SDS011;63074;44.696;10.358;2023-06-22T05:39:51;8.40;;;5.60;;
74523;SDS011;63074;44.696;10.358;2023-06-22T05:42:19;6.78;;;5.00;;
74523;SDS011;63074;44.696;10.358;2023-06-22T05:44:45;8.95;;;5.03;;
74523;SDS011;63074;44.696;10.358;2023-06-22T05:47:12;9.55;;;5.72;;
74523;SDS011;63074;44.696;10.358;2023-06-22T05:49:38;7.35;;;5.20;;
74523;SDS011;63074;44.696;10.358;2023-06-22T05:52:04;9.57;;;5.07;;
74523;SDS011;63074;44.696;10.358;2023-06-22T05:54:31;15.55;;;5.30;;
74523;SDS011;63074;44.696;10.358;2023-06-22T05:56:57;8.10;;;4.85;;
74523;SDS011;63074;44.696;10.358;2023-06-22T05:59:23;8.82;;;5.18;;
74523;SDS011;63074;44.696;10.358;2023-06-22T06:01:49;8.60;;;5.85;;
74523;SDS011;63074;44.696;10.358;2023-06-22T06:04:19;9.40;;;5.18;;
74523;SDS011;63074;44.696;10.358;2023-06-22T06:06:45;9.60;;;5.63;;
74523;SDS011;63074;44.696;10.358;2023-06-22T06:09:14;10.85;;;5.60;;
74523;SDS011;63074;44.696;10.358;2023-06-22T06:11:40;9.57;;;5.47;;
74523;SDS011;63074;44.696;10.358;2023-06-22T06:14:07;8.48;;;4.95;;
74523;SDS011;63074;44.696;10.358;2023-06-22T06:16:33;8.43;;;5.80;;
74523;SDS011;63074;44.696;10.358;2023-06-22T06:19:00;10.90;;;5.72;;
74523;SDS011;63074;44.696;10.358;2023-06-22T06:21:26;11.10;;;5.75;;
74523;SDS011;63074;44.696;10.358;2023-06-22T06:23:52;9.82;;;5.40;;
74523;SDS011;63074;44.696;10.358;2023-06-22T06:26:18;11.32;;;5.93;;
74523;SDS011;63074;44.696;10.358;2023-06-22T06:28:44;8.43;;;5.65;;
74523;SDS011;63074;44.696;10.358;2023-06-22T06:31:11;10.38;;;6.15;;
74523;SDS011;63074;44.696;10.358;2023-06-22T06:33:42;11.20;;;5.57;;
74523;SDS011;63074;44.696;10.358;2023-06-22T06:36:08;13.90;;;6.57;;
74523;SDS011;63074;44.696;10.358;2023-06-22T06:38:34;9.73;;;6.38;;
74523;SDS011;63074;44.696;10.358;2023-06-22T06:41:00;9.38;;;6.07;;
74523;SDS011;63074;44.696;10.358;2023-06-22T06:43:26;6.75;;;5.53;;
74523;SDS011;63074;44.696;10.358;2023-06-22T06:45:52;10.05;;;5.20;;
74523;SDS011;63074;44.696;10.358;2023-06-22T06:48:19;8.98;;;5.72;;
74523;SDS011;63074;44.696;10.358;2023-06-22T06:50:45;10.32;;;5.47;;
74523;SDS011;63074;44.696;10.358;2023-06-22T06:53:11;8.63;;;5.10;;
74523;SDS011;63074;44.696;10.358;2023-06-22T06:55:37;8.32;;;5.47;;
74523;SDS011;63074;44.696;10.358;2023-06-22T06:58:04;9.38;;;5.93;;
74523;SDS011;63074;44.696;10.358;2023-06-22T07:00:32;8.30;;;4.28;;
74523;SDS011;63074;44.696;10.358;2023-06-22T07:03:00;6.38;;;4.32;;
74523;SDS011;63074;44.696;10.358;2023-06-22T07:05:27;9.40;;;5.95;;
74523;SDS011;63074;44.696;10.358;2023-06-22T07:07:53;7.50;;;4.38;;
74523;SDS011;63074;44.696;10.358;2023-06-22T07:10:19;11.02;;;4.72;;
74523;SDS011;63074;44.696;10.358;2023-06-22T07:12:45;9.23;;;5.38;;
74523;SDS011;63074;44.696;10.358;2023-06-22T07:15:11;8.13;;;5.35;;
74523;SDS011;63074;44.696;10.358;2023-06-22T07:17:38;8.57;;;5.50;;
74523;SDS011;63074;44.696;10.358;2023-06-22T07:20:06;8.68;;;5.43;;
74523;SDS011;63074;44.696;10.358;2023-06-22T07:22:40;14.02;;;5.07;;
74523;SDS011;63074;44.696;10.358;2023-06-22T07:25:07;9.65;;;5.57;;
74523;SDS011;63074;44.696;10.358;2023-06-22T07:28:16;6.60;;;4.95;;
74523;SDS011;63074;44.696;10.358;2023-06-22T07:30:23;9.73;;;5.70;;
74523;SDS011;63074;44.696;10.358;2023-06-22T07:32:50;8.60;;;5.07;;
74523;SDS011;63074;44.696;10.358;2023-06-22T07:35:16;7.38;;;4.93;;
74523;SDS011;63074;44.696;10.358;2023-06-22T07:37:42;7.72;;;4.80;;
74523;SDS011;63074;44.696;10.358;2023-06-22T07:40:09;8.70;;;5.47;;
74523;SDS011;63074;44.696;10.358;2023-06-22T07:42:35;7.95;;;5.13;;
74523;SDS011;63074;44.696;10.358;2023-06-22T07:45:02;7.60;;;5.10;;
74523;SDS011;63074;44.696;10.358;2023-06-22T07:47:29;9.20;;;5.60;;
74523;SDS011;63074;44.696;10.358;2023-06-22T07:49:57;6.45;;;5.22;;
74523;SDS011;63074;44.696;10.358;2023-06-22T07:52:26;7.32;;;5.32;;
74523;SDS011;63074;44.696;10.358;2023-06-22T07:54:53;9.27;;;5.55;;
74523;SDS011;63074;44.696;10.358;2023-06-22T07:57:19;6.38;;;5.15;;
74523;SDS011;63074;44.696;10.358;2023-06-22T07:59:45;8.57;;;6.22;;
74523;SDS011;63074;44.696;10.358;2023-06-22T08:02:12;7.55;;;5.60;;
74523;SDS011;63074;44.696;10.358;2023-06-22T08:04:38;9.63;;;5.05;;
74523;SDS011;63074;44.696;10.358;2023-06-22T08:07:06;11.00;;;5.82;;
74523;SDS011;63074;44.696;10.358;2023-06-22T08:09:32;8.73;;;5.75;;
74523;SDS011;63074;44.696;10.358;2023-06-22T08:11:59;9.55;;;5.68;;
74523;SDS011;63074;44.696;10.358;2023-06-22T08:14:25;9.73;;;5.97;;
74523;SDS011;63074;44.696;10.358;2023-06-22T08:16:52;9.55;;;5.50;;
74523;SDS011;63074;44.696;10.358;2023-06-22T08:19:18;8.32;;;6.50;;
74523;SDS011;63074;44.696;10.358;2023-06-22T08:21:44;9.18;;;5.60;;
74523;SDS011;63074;44.696;10.358;2023-06-22T08:24:10;8.27;;;5.45;;
74523;SDS011;63074;44.696;10.358;2023-06-22T08:26:37;7.22;;;5.70;;
74523;SDS011;63074;44.696;10.358;2023-06-22T08:29:04;8.68;;;6.15;;
74523;SDS011;63074;44.696;10.358;2023-06-22T08:31:31;7.82;;;5.13;;
74523;SDS011;63074;44.696;10.358;2023-06-22T08:36:25;8.43;;;5.68;;
74523;SDS011;63074;44.696;10.358;2023-06-22T08:38:57;9.52;;;5.55;;
74523;SDS011;63074;44.696;10.358;2023-06-22T08:41:26;9.18;;;5.00;;
74523;SDS011;63074;44.696;10.358;2023-06-22T08:43:52;9.13;;;5.63;;
74523;SDS011;63074;44.696;10.358;2023-06-22T08:46:19;9.23;;;5.78;;
74523;SDS011;63074;44.696;10.358;2023-06-22T08:48:45;9.05;;;5.20;;
74523;SDS011;63074;44.696;10.358;2023-06-22T08:51:11;6.68;;;4.78;;
74523;SDS011;63074;44.696;10.358;2023-06-22T08:53:39;8.50;;;5.15;;
74523;SDS011;63074;44.696;10.358;2023-06-22T08:56:05;8.82;;;5.75;;
74523;SDS011;63074;44.696;10.358;2023-06-22T08:58:31;8.00;;;5.28;;
74523;SDS011;63074;44.696;10.358;2023-06-22T09:00:57;7.25;;;4.75;;
74523;SDS011;63074;44.696;10.358;2023-06-22T09:03:26;6.25;;;5.28;;
74523;SDS011;63074;44.696;10.358;2023-06-22T09:05:52;6.70;;;5.18;;
74523;SDS011;63074;44.696;10.358;2023-06-22T09:08:19;6.68;;;5.78;;
74523;SDS011;63074;44.696;10.358;2023-06-22T09:10:45;8.60;;;5.05;;
74523;SDS011;63074;44.696;10.358;2023-06-22T09:13:11;9.05;;;5.07;;
74523;SDS011;63074;44.696;10.358;2023-06-22T09:15:37;11.68;;;5.95;;
74523;SDS011;63074;44.696;10.358;2023-06-22T09:18:04;8.43;;;5.45;;
74523;SDS011;63074;44.696;10.358;2023-06-22T09:20:30;10.90;;;5.95;;
74523;SDS011;63074;44.696;10.358;2023-06-22T09:22:56;6.40;;;5.00;;
74523;SDS011;63074;44.696;10.358;2023-06-22T09:25:23;5.80;;;4.60;;
74523;SDS011;63074;44.696;10.358;2023-06-22T09:27:49;12.73;;;5.80;;
74523;SDS011;63074;44.696;10.358;2023-06-22T09:30:15;8.88;;;5.18;;
74523;SDS011;63074;44.696;10.358;2023-06-22T09:32:41;9.00;;;5.60;;
74523;SDS011;63074;44.696;10.358;2023-06-22T09:35:08;9.15;;;5.30;;
74523;SDS011;63074;44.696;10.358;2023-06-22T09:37:35;8.02;;;5.32;;
74523;SDS011;63074;44.696;10.358;2023-06-22T09:40:02;8.57;;;5.75;;
74523;SDS011;63074;44.696;10.358;2023-06-22T09:42:33;6.28;;;5.30;;
74523;SDS011;63074;44.696;10.358;2023-06-22T09:45:00;8.90;;;4.82;;
74523;SDS011;63074;44.696;10.358;2023-06-22T09:47:26;7.70;;;5.43;;
74523;SDS011;63074;44.696;10.358;2023-06-22T09:49:53;7.13;;;5.57;;
74523;SDS011;63074;44.696;10.358;2023-06-22T09:54:46;10.77;;;6.60;;
74523;SDS011;63074;44.696;10.358;2023-06-22T09:57:12;7.70;;;5.55;;
74523;SDS011;63074;44.696;10.358;2023-06-22T09:59:39;8.40;;;4.93;;
74523;SDS011;63074;44.696;10.358;2023-06-22T10:02:06;9.95;;;5.78;;
74523;SDS011;63074;44.696;10.358;2023-06-22T10:04:33;10.07;;;6.05;;
74523;SDS011;63074;44.696;10.358;2023-06-22T10:07:00;10.52;;;6.22;;
74523;SDS011;63074;44.696;10.358;2023-06-22T10:09:27;10.32;;;5.45;;
74523;SDS011;63074;44.696;10.358;2023-06-22T10:11:53;8.32;;;5.15;;
74523;SDS011;63074;44.696;10.358;2023-06-22T10:14:19;7.72;;;5.28;;
74523;SDS011;63074;44.696;10.358;2023-06-22T10:16:46;11.23;;;6.82;;
74523;SDS011;63074;44.696;10.358;2023-06-22T10:19:13;13.98;;;7.40;;
74523;SDS011;63074;44.696;10.358;2023-06-22T10:21:39;11.05;;;7.60;;
74523;SDS011;63074;44.696;10.358;2023-06-22T10:24:05;9.43;;;6.80;;
74523;SDS011;63074;44.696;10.358;2023-06-22T10:26:32;8.52;;;6.70;;
74523;SDS011;63074;44.696;10.358;2023-06-22T10:28:59;10.23;;;6.47;;
74523;SDS011;63074;44.696;10.358;2023-06-22T10:31:26;10.15;;;6.72;;
74523;SDS011;63074;44.696;10.358;2023-06-22T10:33:52;13.43;;;7.40;;
74523;SDS011;63074;44.696;10.358;2023-06-22T10:36:19;9.82;;;8.05;;
74523;SDS011;63074;44.696;10.358;2023-06-22T10:38:45;8.38;;;6.47;;
74523;SDS011;63074;44.696;10.358;2023-06-22T10:41:12;8.63;;;5.88;;
74523;SDS011;63074;44.696;10.358;2023-06-22T10:43:39;9.80;;;7.10;;
74523;SDS011;63074;44.696;10.358;2023-06-22T10:46:06;12.63;;;6.03;;
74523;SDS011;63074;44.696;10.358;2023-06-22T10:48:32;8.73;;;5.82;;
74523;SDS011;63074;44.696;10.358;2023-06-22T10:50:58;8.73;;;5.72;;
74523;SDS011;63074;44.696;10.358;2023-06-22T10:53:24;6.90;;;5.85;;
74523;SDS011;63074;44.696;10.358;2023-06-22T10:55:51;8.82;;;5.28;;
74523;SDS011;63074;44.696;10.358;2023-06-22T10:58:18;6.85;;;5.82;;
74523;SDS011;63074;44.696;10.358;2023-06-22T11:00:45;7.80;;;5.97;;
74523;SDS011;63074;44.696;10.358;2023-06-22T11:03:11;9.43;;;6.15;;
74523;SDS011;63074;44.696;10.358;2023-06-22T11:05:39;9.35;;;5.95;;
74523;SDS011;63074;44.696;10.358;2023-06-22T11:08:05;10.27;;;6.22;;
74523;SDS011;63074;44.696;10.358;2023-06-22T11:10:31;9.80;;;6.00;;
74523;SDS011;63074;44.696;10.358;2023-06-22T11:12:57;7.93;;;5.63;;
74523;SDS011;63074;44.696;10.358;2023-06-22T11:15:24;9.73;;;5.40;;
74523;SDS011;63074;44.696;10.358;2023-06-22T11:17:50;7.97;;;5.70;;
74523;SDS011;63074;44.696;10.358;2023-06-22T11:20:16;6.55;;;5.43;;
74523;SDS011;63074;44.696;10.358;2023-06-22T11:22:43;7.30;;;5.40;;
74523;SDS011;63074;44.696;10.358;2023-06-22T11:25:09;7.10;;;5.10;;
74523;SDS011;63074;44.696;10.358;2023-06-22T11:27:37;7.88;;;5.68;;
74523;SDS011;63074;44.696;10.358;2023-06-22T11:30:03;7.25;;;5.05;;
74523;SDS011;63074;44.696;10.358;2023-06-22T11:32:30;8.35;;;5.38;;
74523;SDS011;63074;44.696;10.358;2023-06-22T11:34:56;7.20;;;6.05;;
74523;SDS011;63074;44.696;10.358;2023-06-22T11:37:22;9.55;;;5.95;;
74523;SDS011;63074;44.696;10.358;2023-06-22T11:39:48;8.48;;;5.35;;
74523;SDS011;63074;44.696;10.358;2023-06-22T11:42:14;11.68;;;6.25;;
74523;SDS011;63074;44.696;10.358;2023-06-22T11:44:41;9.77;;;5.53;;
74523;SDS011;63074;44.696;10.358;2023-06-22T11:47:09;8.60;;;6.10;;
74523;SDS011;63074;44.696;10.358;2023-06-22T11:49:35;9.30;;;6.03;;
74523;SDS011;63074;44.696;10.358;2023-06-22T11:52:01;8.45;;;5.57;;
74523;SDS011;63074;44.696;10.358;2023-06-22T11:54:27;10.60;;;6.03;;
74523;SDS011;63074;44.696;10.358;2023-06-22T11:56:54;8.00;;;5.75;;
74523;SDS011;63074;44.696;10.358;2023-06-22T11:59:20;9.60;;;6.00;;
74523;SDS011;63074;44.696;10.358;2023-06-22T12:01:46;10.15;;;6.65;;
74523;SDS011;63074;44.696;10.358;2023-06-22T12:04:14;9.18;;;5.72;;
74523;SDS011;63074;44.696;10.358;2023-06-22T12:06:40;7.85;;;6.53;;
74523;SDS011;63074;44.696;10.358;2023-06-22T12:09:07;7.25;;;6.38;;
74523;SDS011;63074;44.696;10.358;2023-06-22T12:11:34;13.30;;;6.72;;
74523;SDS011;63074;44.696;10.358;2023-06-22T12:14:00;9.43;;;5.82;;
74523;SDS011;63074;44.696;10.358;2023-06-22T12:16:28;8.43;;;6.10;;
74523;SDS011;63074;44.696;10.358;2023-06-22T12:18:54;7.95;;;5.68;;
74523;SDS011;63074;44.696;10.358;2023-06-22T12:21:20;8.25;;;5.43;;
74523;SDS011;63074;44.696;10.358;2023-06-22T12:23:46;8.98;;;5.78;;
74523;SDS011;63074;44.696;10.358;2023-06-22T12:26:12;7.93;;;5.25;;
74523;SDS011;63074;44.696;10.358;2023-06-22T12:28:38;9.00;;;6.78;;
74523;SDS011;63074;44.696;10.358;2023-06-22T12:31:04;8.48;;;6.00;;
74523;SDS011;63074;44.696;10.358;2023-06-22T12:33:31;8.95;;;5.38;;
74523;SDS011;63074;44.696;10.358;2023-06-22T12:35:57;11.60;;;5.45;;
74523;SDS011;63074;44.696;10.358;2023-06-22T12:38:23;8.93;;;5.35;;
74523;SDS011;63074;44.696;10.358;2023-06-22T12:40:51;9.50;;;6.40;;
74523;SDS011;63074;44.696;10.358;2023-06-22T12:43:17;9.23;;;5.95;;
74523;SDS011;63074;44.696;10.358;2023-06-22T12:45:43;6.80;;;5.32;;
74523;SDS011;63074;44.696;10.358;2023-06-22T12:48:10;9.95;;;5.90;;
74523;SDS011;63074;44.696;10.358;2023-06-22T12:50:38;8.70;;;6.63;;
74523;SDS011;63074;44.696;10.358;2023-06-22T12:53:14;7.80;;;6.15;;
74523;SDS011;63074;44.696;10.358;2023-06-22T12:55:43;8.48;;;6.03;;
74523;SDS011;63074;44.696;10.358;2023-06-22T12:58:11;8.35;;;6.30;;
74523;SDS011;63074;44.696;10.358;2023-06-22T13:00:37;9.10;;;6.35;;
74523;SDS011;63074;44.696;10.358;2023-06-22T13:03:04;9.23;;;5.95;;
74523;SDS011;63074;44.696;10.358;2023-06-22T13:05:34;9.07;;;6.90;;
74523;SDS011;63074;44.696;10.358;2023-06-22T13:08:01;7.80;;;6.50;;
74523;SDS011;63074;44.696;10.358;2023-06-22T13:10:30;10.57;;;6.90;;
74523;SDS011;63074;44.696;10.358;2023-06-22T13:13:00;10.88;;;6.72;;
74523;SDS011;63074;44.696;10.358;2023-06-22T13:15:27;12.95;;;6.95;;
74523;SDS011;63074;44.696;10.358;2023-06-22T13:17:54;7.63;;;6.15;;
74523;SDS011;63074;44.696;10.358;2023-06-22T13:22:47;9.15;;;6.50;;
74523;SDS011;63074;44.696;10.358;2023-06-22T13:25:13;9.32;;;7.45;;
74523;SDS011;63074;44.696;10.358;2023-06-22T13:27:46;11.70;;;6.82;;
74523;SDS011;63074;44.696;10.358;2023-06-22T13:30:16;9.35;;;6.60;;
74523;SDS011;63074;44.696;10.358;2023-06-22T13:32:43;10.00;;;6.30;;
74523;SDS011;63074;44.696;10.358;2023-06-22T13:35:09;8.15;;;6.35;;
74523;SDS011;63074;44.696;10.358;2023-06-22T13:37:36;9.63;;;6.75;;
74523;SDS011;63074;44.696;10.358;2023-06-22T13:40:03;7.45;;;5.70;;
74523;SDS011;63074;44.696;10.358;2023-06-22T13:42:32;8.82;;;6.25;;
74523;SDS011;63074;44.696;10.358;2023-06-22T13:44:59;9.23;;;6.68;;
74523;SDS011;63074;44.696;10.358;2023-06-22T13:47:25;8.00;;;6.57;;
74523;SDS011;63074;44.696;10.358;2023-06-22T13:49:52;11.98;;;6.40;;
74523;SDS011;63074;44.696;10.358;2023-06-22T14:00:10;9.45;;;7.35;;
74523;SDS011;63074;44.696;10.358;2023-06-22T14:05:06;7.32;;;6.00;;
74523;SDS011;63074;44.696;10.358;2023-06-22T14:07:37;8.80;;;6.60;;
74523;SDS011;63074;44.696;10.358;2023-06-22T14:12:32;8.35;;;6.00;;
74523;SDS011;63074;44.696;10.358;2023-06-22T14:14:58;11.13;;;6.78;;
74523;SDS011;63074;44.696;10.358;2023-06-22T14:17:24;10.95;;;6.47;;
74523;SDS011;63074;44.696;10.358;2023-06-22T14:19:51;11.20;;;6.03;;
74523;SDS011;63074;44.696;10.358;2023-06-22T14:22:19;7.78;;;6.03;;
74523;SDS011;63074;44.696;10.358;2023-06-22T14:24:52;11.77;;;6.32;;
74523;SDS011;63074;44.696;10.358;2023-06-22T14:27:18;9.40;;;6.15;;
74523;SDS011;63074;44.696;10.358;2023-06-22T14:29:44;12.15;;;6.88;;
74523;SDS011;63074;44.696;10.358;2023-06-22T14:32:10;12.27;;;6.72;;
74523;SDS011;63074;44.696;10.358;2023-06-22T14:34:37;9.35;;;5.90;;
74523;SDS011;63074;44.696;10.358;2023-06-22T14:37:05;7.47;;;5.75;;
74523;SDS011;63074;44.696;10.358;2023-06-22T14:39:32;10.18;;;5.75;;
74523;SDS011;63074;44.696;10.358;2023-06-22T14:41:59;10.38;;;6.40;;
74523;SDS011;63074;44.696;10.358;2023-06-22T14:44:26;9.93;;;6.47;;
74523;SDS011;63074;44.696;10.358;2023-06-22T14:46:54;10.10;;;5.68;;
74523;SDS011;63074;44.696;10.358;2023-06-22T14:51:46;10.27;;;6.97;;
74523;SDS011;63074;44.696;10.358;2023-06-22T14:54:13;13.07;;;7.25;;
74523;SDS011;63074;44.696;10.358;2023-06-22T14:56:39;9.85;;;6.13;;
74523;SDS011;63074;44.696;10.358;2023-06-22T14:59:05;11.48;;;6.70;;
74523;SDS011;63074;44.696;10.358;2023-06-22T15:01:35;10.88;;;6.13;;
74523;SDS011;63074;44.696;10.358;2023-06-22T15:04:02;9.48;;;6.55;;
74523;SDS011;63074;44.696;10.358;2023-06-22T15:06:36;12.82;;;7.22;;
74523;SDS011;63074;44.696;10.358;2023-06-22T15:09:05;11.07;;;7.28;;
74523;SDS011;63074;44.696;10.358;2023-06-22T15:11:32;10.40;;;6.05;;
74523;SDS011;63074;44.696;10.358;2023-06-22T15:13:58;9.45;;;7.40;;